createdAt,value
2023-03-20T00:00:29.460Z,5.71
2023-03-20T00:01:29.461Z,5.76
2023-03-20T00:02:29.443Z,5.73
2023-03-20T00:03:29.463Z,5.79
2023-03-20T00:04:29.632Z,5.76
2023-03-20T00:05:29.406Z,5.79
2023-03-20T00:06:29.393Z,5.83
2023-03-20T00:07:29.381Z,5.76
2023-03-20T00:08:29.823Z,5.76
2023-03-20T00:09:29.344Z,5.75
2023-03-20T00:10:29.356Z,5.82
2023-03-20T00:11:29.331Z,5.80
2023-03-20T00:12:29.311Z,5.82
2023-03-20T00:13:29.293Z,5.82
2023-03-20T00:14:29.280Z,5.82
2023-03-20T00:15:29.278Z,5.84
2023-03-20T00:16:29.394Z,5.83
2023-03-20T00:17:29.250Z,5.84
2023-03-20T00:18:29.232Z,5.87
2023-03-20T00:19:29.274Z,5.90
2023-03-20T00:20:31.607Z,5.91
2023-03-20T00:21:29.190Z,5.87
2023-03-20T00:22:29.178Z,5.79
2023-03-20T00:23:29.176Z,5.76
2023-03-20T00:24:29.162Z,5.75
2023-03-20T00:25:29.144Z,5.75
2023-03-20T00:26:29.149Z,5.76
2023-03-20T00:27:29.120Z,5.79
2023-03-20T00:28:29.114Z,5.80
2023-03-20T00:29:29.103Z,5.84
2023-03-20T00:30:29.080Z,5.86
2023-03-20T00:31:29.171Z,5.90
2023-03-20T00:32:29.051Z,5.87
2023-03-20T00:33:29.044Z,5.91
2023-03-20T00:34:29.049Z,5.87
2023-03-20T00:35:29.010Z,5.90
2023-03-20T00:36:29.016Z,5.84
2023-03-20T00:37:28.988Z,5.86
2023-03-20T00:38:28.979Z,5.90
2023-03-20T00:39:28.959Z,5.90
2023-03-20T00:40:28.946Z,5.90
2023-03-20T00:41:28.958Z,5.83
2023-03-20T00:42:28.955Z,5.86
2023-03-20T00:43:28.914Z,5.83
2023-03-20T00:44:28.904Z,5.87
2023-03-20T00:45:28.882Z,5.83
2023-03-20T00:46:28.918Z,5.83
2023-03-20T00:47:28.865Z,5.87
2023-03-20T00:48:28.855Z,5.91
2023-03-20T00:49:28.835Z,5.91
2023-03-20T00:50:28.819Z,5.91
2023-03-20T00:51:28.812Z,5.93
2023-03-20T00:52:28.796Z,5.93
2023-03-20T00:53:28.788Z,5.93
2023-03-20T00:54:28.785Z,5.91
2023-03-20T00:55:28.769Z,5.90
2023-03-20T00:56:28.744Z,5.94
2023-03-20T00:57:28.735Z,5.91
2023-03-20T00:58:28.778Z,5.91
2023-03-20T00:59:28.714Z,5.86
2023-03-20T01:00:28.757Z,5.87
2023-03-20T01:01:28.675Z,5.83
2023-03-20T01:02:28.863Z,5.80
2023-03-20T01:03:28.658Z,5.80
2023-03-20T01:04:28.651Z,5.72
2023-03-20T01:05:28.627Z,5.73
2023-03-20T01:06:28.616Z,5.79
2023-03-20T01:07:28.599Z,5.82
2023-03-20T01:08:28.586Z,5.79
2023-03-20T01:09:28.593Z,5.79
2023-03-20T01:10:28.567Z,5.80
2023-03-20T01:11:28.544Z,5.83
2023-03-20T01:12:28.549Z,5.82
2023-03-20T01:13:28.536Z,5.86
2023-03-20T01:14:28.532Z,5.93
2023-03-20T01:15:28.520Z,5.93
2023-03-20T01:16:28.543Z,5.97
2023-03-20T01:17:28.474Z,5.91
2023-03-20T01:18:28.455Z,5.87
2023-03-20T01:19:28.465Z,5.87
2023-03-20T01:20:28.435Z,5.89
2023-03-20T01:21:28.415Z,5.83
2023-03-20T01:22:28.410Z,5.80
2023-03-20T01:23:28.390Z,5.80
2023-03-20T01:24:28.378Z,5.82
2023-03-20T01:25:28.395Z,5.79
2023-03-20T01:26:28.350Z,5.84
2023-03-20T01:27:28.346Z,5.80
2023-03-20T01:28:28.333Z,5.86
2023-03-20T01:29:28.323Z,5.86
2023-03-20T01:30:28.320Z,5.84
2023-03-20T01:31:28.311Z,5.84
2023-03-20T01:32:28.274Z,5.89
2023-03-20T01:33:28.261Z,5.82
2023-03-20T01:34:28.262Z,5.83
2023-03-20T01:35:28.243Z,5.82
2023-03-20T01:36:28.228Z,5.80
2023-03-20T01:37:28.218Z,5.80
2023-03-20T01:38:28.196Z,5.76
2023-03-20T01:39:28.208Z,5.76
2023-03-20T01:40:28.176Z,5.73
2023-03-20T01:41:28.170Z,5.79
2023-03-20T01:42:28.148Z,5.82
2023-03-20T01:43:28.137Z,5.79
2023-03-20T01:44:28.120Z,5.75
2023-03-20T01:45:28.117Z,5.73
2023-03-20T01:46:28.229Z,5.75
2023-03-20T01:47:28.090Z,5.73
2023-03-20T01:48:28.076Z,5.80
2023-03-20T01:49:28.065Z,5.80
2023-03-20T01:50:28.043Z,5.83
2023-03-20T01:51:28.044Z,5.83
2023-03-20T01:52:28.021Z,5.82
2023-03-20T01:53:28.012Z,5.83
2023-03-20T01:54:28.015Z,5.84
2023-03-20T01:55:27.979Z,5.87
2023-03-20T01:56:27.967Z,5.87
2023-03-20T01:57:27.959Z,5.86
2023-03-20T01:58:27.949Z,5.87
2023-03-20T01:59:27.938Z,5.86
2023-03-20T02:00:27.922Z,5.87
2023-03-20T02:01:27.981Z,5.90
2023-03-20T02:02:27.929Z,5.89
2023-03-20T02:03:27.887Z,5.84
2023-03-20T02:04:27.919Z,5.83
2023-03-20T02:05:27.858Z,5.82
2023-03-20T02:06:27.849Z,5.76
2023-03-20T02:07:27.835Z,5.80
2023-03-20T02:08:27.816Z,5.79
2023-03-20T02:09:27.821Z,5.80
2023-03-20T02:10:27.796Z,5.82
2023-03-20T02:11:27.783Z,5.75
2023-03-20T02:12:27.771Z,5.75
2023-03-20T02:13:27.750Z,5.72
2023-03-20T02:14:27.745Z,5.71
2023-03-20T02:15:27.736Z,5.66
2023-03-20T02:16:27.757Z,5.65
2023-03-20T02:17:27.703Z,5.64
2023-03-20T02:18:27.711Z,5.64
2023-03-20T02:19:27.674Z,5.64
2023-03-20T02:20:27.669Z,5.65
2023-03-20T02:21:27.648Z,5.69
2023-03-20T02:22:27.644Z,5.72
2023-03-20T02:23:27.642Z,5.71
2023-03-20T02:24:27.609Z,5.72
2023-03-20T02:25:27.594Z,5.71
2023-03-20T02:26:27.604Z,5.72
2023-03-20T02:27:27.570Z,5.75
2023-03-20T02:28:27.564Z,5.75
2023-03-20T02:29:27.550Z,5.75
2023-03-20T02:30:27.530Z,5.75
2023-03-20T02:31:27.534Z,5.73
2023-03-20T02:32:27.504Z,5.76
2023-03-20T02:33:27.504Z,5.73
2023-03-20T02:34:27.510Z,5.73
2023-03-20T02:35:27.475Z,5.73
2023-03-20T02:36:27.462Z,5.76
2023-03-20T02:37:27.448Z,5.75
2023-03-20T02:38:27.436Z,5.79
2023-03-20T02:39:27.416Z,5.83
2023-03-20T02:40:27.399Z,5.82
2023-03-20T02:41:27.463Z,5.80
2023-03-20T02:42:27.384Z,5.79
2023-03-20T02:43:27.371Z,5.73
2023-03-20T02:44:27.361Z,5.69
2023-03-20T02:45:27.337Z,5.68
2023-03-20T02:46:27.373Z,5.65
2023-03-20T02:47:27.314Z,5.64
2023-03-20T02:48:27.299Z,5.61
2023-03-20T02:49:27.289Z,5.62
2023-03-20T02:50:27.312Z,5.66
2023-03-20T02:51:27.267Z,5.69
2023-03-20T02:52:27.248Z,5.69
2023-03-20T02:53:27.238Z,5.69
2023-03-20T02:54:27.232Z,5.71
2023-03-20T02:55:27.220Z,5.73
2023-03-20T02:56:27.206Z,5.73
2023-03-20T02:57:27.205Z,5.71
2023-03-20T02:58:27.186Z,5.69
2023-03-20T02:59:27.159Z,5.71
2023-03-20T03:00:27.166Z,5.69
2023-03-20T03:01:27.169Z,5.71
2023-03-20T03:02:27.231Z,5.73
2023-03-20T03:03:27.120Z,5.73
2023-03-20T03:04:27.105Z,5.75
2023-03-20T03:05:27.085Z,5.76
2023-03-20T03:06:27.094Z,5.80
2023-03-20T03:07:27.072Z,5.75
2023-03-20T03:08:27.053Z,5.73
2023-03-20T03:09:27.045Z,5.73
2023-03-20T03:10:27.022Z,5.75
2023-03-20T03:11:27.016Z,5.73
2023-03-20T03:12:26.992Z,5.73
2023-03-20T03:13:26.989Z,5.72
2023-03-20T03:14:26.971Z,5.69
2023-03-20T03:15:26.957Z,5.68
2023-03-20T03:16:27.095Z,5.69
2023-03-20T03:17:26.940Z,5.71
2023-03-20T03:18:26.926Z,5.69
2023-03-20T03:19:26.904Z,5.65
2023-03-20T03:20:26.901Z,5.64
2023-03-20T03:21:26.886Z,5.64
2023-03-20T03:22:26.899Z,5.65
2023-03-20T03:23:26.858Z,5.65
2023-03-20T03:24:39.942Z,5.68
2023-03-20T03:25:27.859Z,5.66
2023-03-20T03:26:26.829Z,5.65
2023-03-20T03:27:26.805Z,5.62
2023-03-20T03:28:26.821Z,5.56
2023-03-20T03:29:26.780Z,5.53
2023-03-20T03:30:26.763Z,5.51
2023-03-20T03:31:26.898Z,5.47
2023-03-20T03:32:26.747Z,5.48
2023-03-20T03:33:26.724Z,5.51
2023-03-20T03:34:26.725Z,5.53
2023-03-20T03:35:26.709Z,5.53
2023-03-20T03:36:26.703Z,5.56
2023-03-20T03:37:26.690Z,5.56
2023-03-20T03:38:26.698Z,5.59
2023-03-20T03:39:26.660Z,5.57
2023-03-20T03:40:26.634Z,5.59
2023-03-20T03:41:26.645Z,5.61
2023-03-20T03:42:26.619Z,5.62
2023-03-20T03:43:26.598Z,5.62
2023-03-20T03:44:26.592Z,5.59
2023-03-20T03:45:26.576Z,5.57
2023-03-20T03:46:26.585Z,5.59
2023-03-20T03:47:26.564Z,5.57
2023-03-20T03:48:26.534Z,5.61
2023-03-20T03:49:26.530Z,5.62
2023-03-20T03:50:26.509Z,5.65
2023-03-20T03:51:26.504Z,5.64
2023-03-20T03:52:26.488Z,5.62
2023-03-20T03:53:26.478Z,5.62
2023-03-20T03:54:26.481Z,5.62
2023-03-20T03:55:26.468Z,5.62
2023-03-20T03:56:26.432Z,5.62
2023-03-20T03:57:26.426Z,5.62
2023-03-20T03:58:26.421Z,5.62
2023-03-20T03:59:26.399Z,5.64
2023-03-20T04:00:26.388Z,5.61
2023-03-20T04:01:26.579Z,5.62
2023-03-20T04:02:26.369Z,5.68
2023-03-20T04:03:26.345Z,5.68
2023-03-20T04:04:26.366Z,5.66
2023-03-20T04:05:26.318Z,5.66
2023-03-20T04:06:26.316Z,5.66
2023-03-20T04:07:26.294Z,5.68
2023-03-20T04:08:26.278Z,5.68
2023-03-20T04:09:26.269Z,5.66
2023-03-20T04:10:26.300Z,5.68
2023-03-20T04:11:26.244Z,5.66
2023-03-20T04:12:26.231Z,5.66
2023-03-20T04:13:26.216Z,5.69
2023-03-20T04:14:26.223Z,5.71
2023-03-20T04:15:26.189Z,5.72
2023-03-20T04:16:26.289Z,5.75
2023-03-20T04:17:26.167Z,5.76
2023-03-20T04:18:26.163Z,5.75
2023-03-20T04:19:26.141Z,5.75
2023-03-20T04:20:26.141Z,5.73
2023-03-20T04:21:26.124Z,5.72
2023-03-20T04:22:26.115Z,5.72
2023-03-20T04:23:26.099Z,5.71
2023-03-20T04:24:26.091Z,5.69
2023-03-20T04:25:26.105Z,5.69
2023-03-20T04:26:26.082Z,5.72
2023-03-20T04:27:26.053Z,5.73
2023-03-20T04:28:26.030Z,5.72
2023-03-20T04:29:26.015Z,5.71
2023-03-20T04:30:26.009Z,5.68
2023-03-20T04:31:26.089Z,5.69
2023-03-20T04:32:25.976Z,5.71
2023-03-20T04:33:25.976Z,5.68
2023-03-20T04:34:25.966Z,5.68
2023-03-20T04:35:25.947Z,5.68
2023-03-20T04:36:25.935Z,5.66
2023-03-20T04:37:25.929Z,5.66
2023-03-20T04:38:25.918Z,5.68
2023-03-20T04:39:25.907Z,5.72
2023-03-20T04:40:25.876Z,5.71
2023-03-20T04:41:25.863Z,5.69
2023-03-20T04:42:25.884Z,5.69
2023-03-20T04:43:25.837Z,5.71
2023-03-20T04:44:25.832Z,5.73
2023-03-20T04:45:25.818Z,5.73
2023-03-20T04:46:25.902Z,5.75
2023-03-20T04:47:25.783Z,5.76
2023-03-20T04:48:25.779Z,5.79
2023-03-20T04:49:25.762Z,5.80
2023-03-20T04:50:25.763Z,5.79
2023-03-20T04:51:25.732Z,5.79
2023-03-20T04:52:25.753Z,5.80
2023-03-20T04:53:27.236Z,5.79
2023-03-20T04:54:25.704Z,5.80
2023-03-20T04:55:25.685Z,5.76
2023-03-20T04:56:25.678Z,5.79
2023-03-20T04:57:25.679Z,5.79
2023-03-20T04:58:25.669Z,5.82
2023-03-20T04:59:25.647Z,5.83
2023-03-20T05:00:25.626Z,5.84
2023-03-20T05:01:25.669Z,5.86
2023-03-20T05:02:25.603Z,5.86
2023-03-20T05:03:25.588Z,5.84
2023-03-20T05:04:25.649Z,5.83
2023-03-20T05:05:25.558Z,5.82
2023-03-20T05:06:25.543Z,5.84
2023-03-20T05:07:25.542Z,5.84
2023-03-20T05:08:25.513Z,5.86
2023-03-20T05:09:25.510Z,5.86
2023-03-20T05:10:25.491Z,5.87
2023-03-20T05:11:25.486Z,5.90
2023-03-20T05:12:25.479Z,5.91
2023-03-20T05:13:25.459Z,5.89
2023-03-20T05:14:25.470Z,5.89
2023-03-20T05:15:25.433Z,5.90
2023-03-20T05:16:25.489Z,5.89
2023-03-20T05:17:25.405Z,5.86
2023-03-20T05:18:25.388Z,5.83
2023-03-20T05:19:25.374Z,5.80
2023-03-20T05:20:25.360Z,5.75
2023-03-20T05:21:25.368Z,5.73
2023-03-20T05:22:25.348Z,5.73
2023-03-20T05:23:25.323Z,5.75
2023-03-20T05:24:25.316Z,5.75
2023-03-20T05:25:25.308Z,5.76
2023-03-20T05:26:25.306Z,5.76
2023-03-20T05:27:25.272Z,5.76
2023-03-20T05:28:25.264Z,5.79
2023-03-20T05:29:25.254Z,5.80
2023-03-20T05:30:25.254Z,5.83
2023-03-20T05:31:25.287Z,5.83
2023-03-20T05:32:25.216Z,5.80
2023-03-20T05:33:25.197Z,5.79
2023-03-20T05:34:25.185Z,5.75
2023-03-20T05:35:25.175Z,5.72
2023-03-20T05:36:25.164Z,5.73
2023-03-20T05:37:25.149Z,5.73
2023-03-20T05:38:25.135Z,5.73
2023-03-20T05:39:25.123Z,5.75
2023-03-20T05:40:25.110Z,5.75
2023-03-20T05:41:25.097Z,5.72
2023-03-20T05:42:25.086Z,5.71
2023-03-20T05:43:25.072Z,5.71
2023-03-20T05:44:25.056Z,5.68
2023-03-20T05:45:25.038Z,5.68
2023-03-20T05:46:25.074Z,5.69
2023-03-20T05:47:26.175Z,5.72
2023-03-20T05:48:25.027Z,5.73
2023-03-20T05:49:25.003Z,5.72
2023-03-20T05:50:24.971Z,5.72
2023-03-20T05:51:24.970Z,5.71
2023-03-20T05:52:24.949Z,5.72
2023-03-20T05:53:24.941Z,5.72
2023-03-20T05:54:24.923Z,5.75
2023-03-20T05:55:24.910Z,5.75
2023-03-20T05:56:24.982Z,5.76
2023-03-20T05:57:24.894Z,5.76
2023-03-20T05:58:24.875Z,5.79
2023-03-20T05:59:24.870Z,5.82
2023-03-20T06:00:24.846Z,5.83
2023-03-20T06:01:24.841Z,5.80
2023-03-20T06:02:24.887Z,5.82
2023-03-20T06:03:24.844Z,5.83
2023-03-20T06:04:24.807Z,5.86
2023-03-20T06:05:24.795Z,5.89
2023-03-20T06:06:24.781Z,5.91
2023-03-20T06:07:24.762Z,5.93
2023-03-20T06:08:24.755Z,5.98
2023-03-20T06:09:24.738Z,6.01
2023-03-20T06:10:24.724Z,6.02
2023-03-20T06:11:24.719Z,6.01
2023-03-20T06:12:24.701Z,6.05
2023-03-20T06:13:24.691Z,6.04
2023-03-20T06:14:24.669Z,6.05
2023-03-20T06:15:24.662Z,6.07
2023-03-20T06:16:24.694Z,6.07
2023-03-20T06:17:24.645Z,6.09
2023-03-20T06:18:24.655Z,6.11
2023-03-20T06:19:24.612Z,6.12
2023-03-20T06:20:24.594Z,6.16
2023-03-20T06:21:24.590Z,6.16
2023-03-20T06:22:24.574Z,6.17
2023-03-20T06:23:24.567Z,6.17
2023-03-20T06:24:24.568Z,6.19
2023-03-20T06:25:24.536Z,6.19
2023-03-20T06:26:24.518Z,6.20
2023-03-20T06:27:24.508Z,6.22
2023-03-20T06:28:24.493Z,6.22
2023-03-20T06:29:24.488Z,6.24
2023-03-20T06:30:24.475Z,6.26
2023-03-20T06:31:24.524Z,6.28
2023-03-20T06:32:24.451Z,6.31
2023-03-20T06:33:24.428Z,6.35
2023-03-20T06:34:24.447Z,6.38
2023-03-20T06:35:24.450Z,6.36
2023-03-20T06:36:24.397Z,6.39
2023-03-20T06:37:24.375Z,6.39
2023-03-20T06:38:24.384Z,6.41
2023-03-20T06:39:24.357Z,6.41
2023-03-20T06:40:24.344Z,6.41
2023-03-20T06:41:34.301Z,6.41
2023-03-20T06:42:25.339Z,6.39
2023-03-20T06:43:24.310Z,6.39
2023-03-20T06:44:24.285Z,6.42
2023-03-20T06:45:24.272Z,6.44
2023-03-20T06:46:24.286Z,6.45
2023-03-20T06:47:24.257Z,6.45
2023-03-20T06:48:24.229Z,6.46
2023-03-20T06:49:24.230Z,6.45
2023-03-20T06:50:24.245Z,6.45
2023-03-20T06:51:24.200Z,6.46
2023-03-20T06:52:24.191Z,6.45
2023-03-20T06:53:24.179Z,6.44
2023-03-20T06:54:24.166Z,6.44
2023-03-20T06:55:24.158Z,6.46
2023-03-20T06:56:24.132Z,6.48
2023-03-20T06:57:24.120Z,6.48
2023-03-20T06:58:24.117Z,6.51
2023-03-20T06:59:24.108Z,6.52
2023-03-20T07:00:24.086Z,6.54
2023-03-20T07:01:24.134Z,6.59
2023-03-20T07:02:24.056Z,6.62
2023-03-20T07:03:24.056Z,6.63
2023-03-20T07:04:24.045Z,6.63
2023-03-20T07:05:24.078Z,6.63
2023-03-20T07:06:24.038Z,6.64
2023-03-20T07:07:23.995Z,6.67
2023-03-20T07:08:23.989Z,6.69
2023-03-20T07:09:24.051Z,6.70
2023-03-20T07:10:23.957Z,6.72
2023-03-20T07:11:23.947Z,6.70
2023-03-20T07:12:23.937Z,6.72
2023-03-20T07:13:23.921Z,6.75
2023-03-20T07:14:23.926Z,6.78
2023-03-20T07:15:23.893Z,6.79
2023-03-20T07:16:23.997Z,6.81
2023-03-20T07:17:23.877Z,6.84
2023-03-20T07:18:23.873Z,6.92
2023-03-20T07:19:23.842Z,6.96
2023-03-20T07:20:23.838Z,7.02
2023-03-20T07:21:23.829Z,7.06
2023-03-20T07:22:23.840Z,7.11
2023-03-20T07:23:23.814Z,7.13
2023-03-20T07:24:23.784Z,7.15
2023-03-20T07:25:35.484Z,7.15
2023-03-20T07:26:24.783Z,7.18
2023-03-20T07:27:23.754Z,7.21
2023-03-20T07:28:23.739Z,7.25
2023-03-20T07:29:23.718Z,7.29
2023-03-20T07:30:23.710Z,7.31
2023-03-20T07:31:23.738Z,7.33
2023-03-20T07:32:23.682Z,7.33
2023-03-20T07:33:23.777Z,7.39
2023-03-20T07:34:23.653Z,7.39
2023-03-20T07:35:23.675Z,7.40
2023-03-20T07:36:23.634Z,7.45
2023-03-20T07:37:23.627Z,7.48
2023-03-20T07:38:23.625Z,7.45
2023-03-20T07:39:23.596Z,7.45
2023-03-20T07:40:23.585Z,7.45
2023-03-20T07:41:23.588Z,7.48
2023-03-20T07:42:23.551Z,7.42
2023-03-20T07:43:23.545Z,7.50
2023-03-20T07:44:23.535Z,7.51
2023-03-20T07:45:23.507Z,7.53
2023-03-20T07:46:23.610Z,7.53
2023-03-20T07:47:23.485Z,7.56
2023-03-20T07:48:23.479Z,7.63
2023-03-20T07:49:23.476Z,7.69
2023-03-20T07:50:23.447Z,7.70
2023-03-20T07:51:23.433Z,7.69
2023-03-20T07:52:23.449Z,7.69
2023-03-20T07:53:23.433Z,7.75
2023-03-20T07:54:23.431Z,7.75
2023-03-20T07:55:23.394Z,7.75
2023-03-20T07:56:23.378Z,7.67
2023-03-20T07:57:23.373Z,7.72
2023-03-20T07:58:23.354Z,7.69
2023-03-20T07:59:23.335Z,7.72
2023-03-20T08:00:23.323Z,7.72
2023-03-20T08:01:23.318Z,7.67
2023-03-20T08:02:23.294Z,7.63
2023-03-20T08:03:23.373Z,7.69
2023-03-20T08:04:23.399Z,7.70
2023-03-20T08:05:23.259Z,7.69
2023-03-20T08:06:23.249Z,7.69
2023-03-20T08:07:23.229Z,7.75
2023-03-20T08:08:23.216Z,7.76
2023-03-20T08:09:23.202Z,7.70
2023-03-20T08:10:23.283Z,7.76
2023-03-20T08:11:23.222Z,7.79
2023-03-20T08:12:23.168Z,7.76
2023-03-20T08:13:23.162Z,7.83
2023-03-20T08:14:23.142Z,7.85
2023-03-20T08:15:23.152Z,7.90
2023-03-20T08:16:23.159Z,7.90
2023-03-20T08:17:23.297Z,7.93
2023-03-20T08:18:23.091Z,7.94
2023-03-20T08:19:23.088Z,7.94
2023-03-20T08:20:23.080Z,7.97
2023-03-20T08:21:23.063Z,7.97
2023-03-20T08:22:23.058Z,7.93
2023-03-20T08:23:23.037Z,7.91
2023-03-20T08:24:23.020Z,7.87
2023-03-20T08:25:23.010Z,7.87
2023-03-20T08:26:23.030Z,7.85
2023-03-20T08:27:22.995Z,7.80
2023-03-20T08:28:30.881Z,7.76
2023-03-20T08:29:23.996Z,7.73
2023-03-20T08:30:22.950Z,7.75
2023-03-20T08:31:22.930Z,7.72
2023-03-20T08:32:22.929Z,7.72
2023-03-20T08:33:22.936Z,7.73
2023-03-20T08:34:24.136Z,7.76
2023-03-20T08:35:32.916Z,7.72
2023-03-20T08:36:23.960Z,7.75
2023-03-20T08:37:22.864Z,7.75
2023-03-20T08:38:22.841Z,7.73
2023-03-20T08:39:22.848Z,7.75
2023-03-20T08:40:22.819Z,7.76
2023-03-20T08:41:22.802Z,7.75
2023-03-20T08:42:22.820Z,7.80
2023-03-20T08:43:22.795Z,7.83
2023-03-20T08:44:22.768Z,7.90
2023-03-20T08:45:22.757Z,7.85
2023-03-20T08:46:22.810Z,7.87
2023-03-20T08:47:22.732Z,7.93
2023-03-20T08:48:22.727Z,7.94
2023-03-20T08:49:22.705Z,7.98
2023-03-20T08:50:22.690Z,8.03
2023-03-20T08:51:22.669Z,8.08
2023-03-20T08:52:22.659Z,8.10
2023-03-20T08:53:22.656Z,8.10
2023-03-20T08:54:22.640Z,8.09
2023-03-20T08:55:22.628Z,8.10
2023-03-20T08:56:22.618Z,8.16
2023-03-20T08:57:22.602Z,8.16
2023-03-20T08:58:22.610Z,8.19
2023-03-20T08:59:22.568Z,8.27
2023-03-20T09:00:22.634Z,8.28
2023-03-20T09:01:22.605Z,8.31
2023-03-20T09:02:22.642Z,8.31
2023-03-20T09:03:22.525Z,8.33
2023-03-20T09:04:22.505Z,8.36
2023-03-20T09:05:22.487Z,8.37
2023-03-20T09:06:22.493Z,8.41
2023-03-20T09:07:22.472Z,8.45
2023-03-20T09:08:22.458Z,8.49
2023-03-20T09:09:22.457Z,8.52
2023-03-20T09:10:22.426Z,8.52
2023-03-20T09:11:22.414Z,8.51
2023-03-20T09:12:22.415Z,8.52
2023-03-20T09:13:27.673Z,8.56
2023-03-20T09:14:22.411Z,8.61
2023-03-20T09:15:22.375Z,8.67
2023-03-20T09:16:22.397Z,8.67
2023-03-20T09:17:22.349Z,8.66
2023-03-20T09:18:22.334Z,8.66
2023-03-20T09:19:22.310Z,8.70
2023-03-20T09:20:22.303Z,8.74
2023-03-20T09:21:22.293Z,8.71
2023-03-20T09:22:22.271Z,8.69
2023-03-20T09:23:22.297Z,8.64
2023-03-20T09:24:22.253Z,8.66
2023-03-20T09:25:22.236Z,8.67
2023-03-20T09:26:22.227Z,8.69
2023-03-20T09:27:22.226Z,8.69
2023-03-20T09:28:22.203Z,8.69
2023-03-20T09:29:22.199Z,8.71
2023-03-20T09:30:22.296Z,8.78
2023-03-20T09:31:22.185Z,8.82
2023-03-20T09:32:22.151Z,8.81
2023-03-20T09:33:22.134Z,8.81
2023-03-20T09:34:22.121Z,8.85
2023-03-20T09:35:22.114Z,8.85
2023-03-20T09:36:22.123Z,8.91
2023-03-20T09:37:22.081Z,8.87
2023-03-20T09:38:22.088Z,8.87
2023-03-20T09:39:22.074Z,8.89
2023-03-20T09:40:22.057Z,8.95
2023-03-20T09:41:22.107Z,8.94
2023-03-20T09:42:22.073Z,8.94
2023-03-20T09:43:22.013Z,8.91
2023-03-20T09:44:22.050Z,8.91
2023-03-20T09:45:22.064Z,8.85
2023-03-20T09:46:22.077Z,8.87
2023-03-20T09:47:22.115Z,8.87
2023-03-20T09:48:21.968Z,8.84
2023-03-20T09:49:21.932Z,8.84
2023-03-20T09:50:21.924Z,8.84
2023-03-20T09:51:21.924Z,8.85
2023-03-20T09:52:21.904Z,8.84
2023-03-20T09:53:21.893Z,8.84
2023-03-20T09:54:21.885Z,8.81
2023-03-20T09:55:21.929Z,8.78
2023-03-20T09:56:21.846Z,8.82
2023-03-20T09:57:21.837Z,8.88
2023-03-20T09:58:21.828Z,8.95
2023-03-20T09:59:21.803Z,8.91
2023-03-20T10:00:21.901Z,8.95
2023-03-20T10:01:21.860Z,9.00
2023-03-20T10:02:21.787Z,9.16
2023-03-20T10:03:21.764Z,9.22
2023-03-20T10:04:21.771Z,9.28
2023-03-20T10:05:21.738Z,9.39
2023-03-20T10:06:21.723Z,9.51
2023-03-20T10:07:21.724Z,9.51
2023-03-20T10:08:21.693Z,9.44
2023-03-20T10:09:21.674Z,9.46
2023-03-20T10:10:21.724Z,9.54
2023-03-20T10:11:21.657Z,9.58
2023-03-20T10:12:21.640Z,9.62
2023-03-20T10:13:21.627Z,9.64
2023-03-20T10:14:21.620Z,9.66
2023-03-20T10:15:21.646Z,9.69
2023-03-20T10:16:21.679Z,9.69
2023-03-20T10:17:21.573Z,9.69
2023-03-20T10:18:21.633Z,9.65
2023-03-20T10:19:21.564Z,9.69
2023-03-20T10:20:21.539Z,9.72
2023-03-20T10:21:21.522Z,9.73
2023-03-20T10:22:21.507Z,9.77
2023-03-20T10:23:21.502Z,9.79
2023-03-20T10:24:21.490Z,9.83
2023-03-20T10:25:21.475Z,9.74
2023-03-20T10:26:21.478Z,9.74
2023-03-20T10:27:21.463Z,9.69
2023-03-20T10:28:21.439Z,9.69
2023-03-20T10:29:21.436Z,9.72
2023-03-20T10:30:21.425Z,9.77
2023-03-20T10:31:21.453Z,9.80
2023-03-20T10:32:21.389Z,9.83
2023-03-20T10:33:21.376Z,9.87
2023-03-20T10:34:21.376Z,9.94
2023-03-20T10:35:21.346Z,10.01
2023-03-20T10:36:21.336Z,10.07
2023-03-20T10:37:21.318Z,10.12
2023-03-20T10:38:21.302Z,10.16
2023-03-20T10:39:21.292Z,10.26
2023-03-20T10:40:21.287Z,10.25
2023-03-20T10:41:21.282Z,10.31
2023-03-20T10:42:21.261Z,10.33
2023-03-20T10:43:21.251Z,10.26
2023-03-20T10:44:21.234Z,10.31
2023-03-20T10:45:21.221Z,10.28
2023-03-20T10:46:21.240Z,10.20
2023-03-20T10:47:21.228Z,10.22
2023-03-20T10:48:21.209Z,10.26
2023-03-20T10:49:21.176Z,10.26
2023-03-20T10:50:21.192Z,10.22
2023-03-20T10:51:21.146Z,10.07
2023-03-20T10:52:21.126Z,10.04
2023-03-20T10:53:21.120Z,9.92
2023-03-20T10:54:21.101Z,9.89
2023-03-20T10:55:21.090Z,9.87
2023-03-20T10:56:21.089Z,9.84
2023-03-20T10:57:21.066Z,9.89
2023-03-20T10:58:21.053Z,9.87
2023-03-20T10:59:21.037Z,9.83
2023-03-20T11:00:21.021Z,9.80
2023-03-20T11:01:21.048Z,9.74
2023-03-20T11:02:20.996Z,9.76
2023-03-20T11:03:20.993Z,9.69
2023-03-20T11:04:21.024Z,9.73
2023-03-20T11:05:20.976Z,9.76
2023-03-20T11:06:20.972Z,9.76
2023-03-20T11:07:20.940Z,9.79
2023-03-20T11:08:20.929Z,9.83
2023-03-20T11:09:20.947Z,9.89
2023-03-20T11:10:20.904Z,9.84
2023-03-20T11:11:20.882Z,9.79
2023-03-20T11:12:20.877Z,9.82
2023-03-20T11:13:20.854Z,9.83
2023-03-20T11:14:20.894Z,9.83
2023-03-20T11:15:20.828Z,9.80
2023-03-20T11:16:20.978Z,9.83
2023-03-20T11:17:20.812Z,9.87
2023-03-20T11:18:20.799Z,9.87
2023-03-20T11:19:20.794Z,9.87
2023-03-20T11:20:20.768Z,9.87
2023-03-20T11:21:20.765Z,9.82
2023-03-20T11:22:20.773Z,9.80
2023-03-20T11:23:20.734Z,9.79
2023-03-20T11:24:20.722Z,9.80
2023-03-20T11:25:20.706Z,9.79
2023-03-20T11:26:20.704Z,9.80
2023-03-20T11:27:20.702Z,9.77
2023-03-20T11:28:20.673Z,9.79
2023-03-20T11:29:20.657Z,9.77
2023-03-20T11:30:20.695Z,9.79
2023-03-20T11:31:20.626Z,9.82
2023-03-20T11:32:20.609Z,9.82
2023-03-20T11:33:20.602Z,9.80
2023-03-20T11:34:20.589Z,9.80
2023-03-20T11:35:20.572Z,9.80
2023-03-20T11:36:20.577Z,9.82
2023-03-20T11:37:20.566Z,9.77
2023-03-20T11:38:20.561Z,9.76
2023-03-20T11:39:20.526Z,9.79
2023-03-20T11:40:20.520Z,9.80
2023-03-20T11:41:20.508Z,9.80
2023-03-20T11:42:20.487Z,9.80
2023-03-20T11:43:20.481Z,9.82
2023-03-20T11:44:20.464Z,9.80
2023-03-20T11:45:20.459Z,9.80
2023-03-20T11:46:20.546Z,9.83
2023-03-20T11:47:20.427Z,9.82
2023-03-20T11:48:20.408Z,9.80
2023-03-20T11:49:20.413Z,9.83
2023-03-20T11:50:20.389Z,9.83
2023-03-20T11:51:20.393Z,9.83
2023-03-20T11:52:20.361Z,9.84
2023-03-20T11:53:20.341Z,9.89
2023-03-20T11:54:20.356Z,9.91
2023-03-20T11:55:20.316Z,9.92
2023-03-20T11:56:20.305Z,9.89
2023-03-20T11:57:20.283Z,9.92
2023-03-20T11:58:20.272Z,9.94
2023-03-20T11:59:20.268Z,9.98
2023-03-20T12:00:20.252Z,10.02
2023-03-20T12:01:20.245Z,10.04
2023-03-20T12:02:20.245Z,10.12
2023-03-20T12:03:20.228Z,10.17
2023-03-20T12:04:20.205Z,10.19
2023-03-20T12:05:20.183Z,10.19
2023-03-20T12:06:20.174Z,10.17
2023-03-20T12:07:20.162Z,10.16
2023-03-20T12:08:20.162Z,10.13
2023-03-20T12:09:20.148Z,10.09
2023-03-20T12:10:20.151Z,9.97
2023-03-20T12:11:20.104Z,9.87
2023-03-20T12:12:20.094Z,9.87
2023-03-20T12:13:20.086Z,9.84
2023-03-20T12:14:20.073Z,9.89
2023-03-20T12:15:20.112Z,9.89
2023-03-20T12:16:20.148Z,9.91
2023-03-20T12:17:20.028Z,9.94
2023-03-20T12:18:20.026Z,10.05
2023-03-20T12:19:20.019Z,10.15
2023-03-20T12:20:20.006Z,10.25
2023-03-20T12:21:19.989Z,10.33
2023-03-20T12:22:19.970Z,10.44
2023-03-20T12:23:19.959Z,10.48
2023-03-20T12:24:19.943Z,10.56
2023-03-20T12:25:19.934Z,10.60
2023-03-20T12:26:19.970Z,10.71
2023-03-20T12:27:19.905Z,10.78
2023-03-20T12:28:19.902Z,10.92
2023-03-20T12:29:19.886Z,10.97
2023-03-20T12:30:19.876Z,10.97
2023-03-20T12:31:20.123Z,10.99
2023-03-20T12:32:19.839Z,11.05
2023-03-20T12:33:19.830Z,11.07
2023-03-20T12:34:19.815Z,11.10
2023-03-20T12:35:19.798Z,11.12
2023-03-20T12:36:19.790Z,11.15
2023-03-20T12:37:19.769Z,11.19
2023-03-20T12:38:19.774Z,11.18
2023-03-20T12:39:19.745Z,11.19
2023-03-20T12:40:19.735Z,11.23
2023-03-20T12:41:19.721Z,11.26
2023-03-20T12:42:19.764Z,11.25
2023-03-20T12:43:19.712Z,11.30
2023-03-20T12:44:19.704Z,11.33
2023-03-20T12:45:19.675Z,11.29
2023-03-20T12:46:19.752Z,11.18
2023-03-20T12:47:19.647Z,11.14
2023-03-20T12:48:19.629Z,11.11
2023-03-20T12:49:19.617Z,11.05
2023-03-20T12:50:19.610Z,10.94
2023-03-20T12:51:19.608Z,10.97
2023-03-20T12:52:19.577Z,11.00
2023-03-20T12:53:19.578Z,11.10
2023-03-20T12:54:19.568Z,11.12
2023-03-20T12:55:19.544Z,11.17
2023-03-20T12:56:19.554Z,11.23
2023-03-20T12:57:19.539Z,11.35
2023-03-20T12:58:19.528Z,11.48
2023-03-20T12:59:19.501Z,11.62
2023-03-20T13:00:19.480Z,11.72
2023-03-20T13:01:19.523Z,11.75
2023-03-20T13:02:19.459Z,11.81
2023-03-20T13:03:19.450Z,11.90
2023-03-20T13:04:19.466Z,12.04
2023-03-20T13:05:19.423Z,12.04
2023-03-20T13:06:19.402Z,12.07
2023-03-20T13:07:19.383Z,12.06
2023-03-20T13:08:19.396Z,12.17
2023-03-20T13:09:19.366Z,12.18
2023-03-20T13:10:19.357Z,12.07
2023-03-20T13:11:19.345Z,12.17
2023-03-20T13:12:19.331Z,12.29
2023-03-20T13:13:19.309Z,12.27
2023-03-20T13:14:19.331Z,12.24
2023-03-20T13:15:21.540Z,12.18